createdAt,value
2017-10-18T00:03:50.117Z,15.21
2017-10-18T00:08:52.061Z,15.18
2017-10-18T00:13:54.104Z,15.12
2017-10-18T00:18:56.055Z,15.10
2017-10-18T00:23:59.060Z,15.08
2017-10-18T00:29:01.162Z,14.92
2017-10-18T00:34:03.421Z,14.92
2017-10-18T00:39:05.388Z,14.87
2017-10-18T00:44:08.349Z,14.90
2017-10-18T00:49:11.240Z,14.90
2017-10-18T00:54:13.265Z,14.94
2017-10-18T00:59:16.832Z,14.64
2017-10-18T01:04:18.925Z,14.61
2017-10-18T01:09:20.957Z,14.77
2017-10-18T01:14:22.868Z,14.63
2017-10-18T01:19:24.776Z,14.54
2017-10-18T01:24:26.700Z,14.69
2017-10-18T01:29:28.639Z,14.71
2017-10-18T01:34:31.299Z,14.67
2017-10-18T01:39:33.288Z,14.62
2017-10-18T01:44:35.255Z,14.54
2017-10-18T01:49:37.971Z,14.47
2017-10-18T01:54:39.915Z,14.53
2017-10-18T01:59:41.920Z,14.42
2017-10-18T02:04:43.896Z,14.43
2017-10-18T02:09:46.540Z,14.61
2017-10-18T02:14:48.455Z,14.63
2017-10-18T02:19:50.382Z,14.76
2017-10-18T02:24:52.307Z,14.91
2017-10-18T02:29:54.224Z,15.16
2017-10-18T02:34:56.899Z,15.22
2017-10-18T02:39:58.816Z,15.23
2017-10-18T02:45:00.723Z,15.23
2017-10-18T02:50:02.641Z,15.26
2017-10-18T02:55:04.547Z,15.05
2017-10-18T03:00:06.488Z,14.86
2017-10-18T03:05:08.431Z,14.81
2017-10-18T03:10:10.391Z,14.74
2017-10-18T03:15:12.363Z,14.60
2017-10-18T03:20:14.284Z,14.57
2017-10-18T03:25:16.255Z,14.63
2017-10-18T03:30:18.248Z,14.67
2017-10-18T03:35:20.226Z,14.68
2017-10-18T03:40:22.358Z,14.62
2017-10-18T03:45:24.299Z,14.56
2017-10-18T03:50:26.206Z,14.45
2017-10-18T03:55:28.115Z,14.40
2017-10-18T04:00:30.767Z,14.37
2017-10-18T04:05:32.663Z,14.33
2017-10-18T04:10:34.595Z,14.22
2017-10-18T04:15:36.507Z,14.21
2017-10-18T04:20:39.462Z,14.17
2017-10-18T04:25:45.918Z,14.12
2017-10-18T04:30:49.506Z,13.92
2017-10-18T04:36:00.602Z,13.75
2017-10-18T04:41:06.956Z,13.88
2017-10-18T04:46:10.942Z,13.79
2017-10-18T04:51:14.212Z,13.59
2017-10-18T04:56:21.585Z,13.70
2017-10-18T05:01:31.217Z,13.84
2017-10-18T05:06:37.290Z,13.71
2017-10-18T05:11:46.584Z,13.50
2017-10-18T05:16:50.263Z,13.51
2017-10-18T05:21:57.898Z,13.29
2017-10-18T05:27:03.628Z,13.32
2017-10-18T05:32:10.407Z,13.43
2017-10-18T05:37:13.110Z,13.34
2017-10-18T05:42:15.080Z,13.35
2017-10-18T05:47:17.034Z,13.54
2017-10-18T05:52:18.929Z,13.63
2017-10-18T05:57:20.856Z,13.79
2017-10-18T06:02:23.482Z,13.90
2017-10-18T06:07:26.148Z,13.67
2017-10-18T06:12:28.090Z,13.93
2017-10-18T06:17:35.159Z,14.36
2017-10-18T06:22:39.595Z,14.38
2017-10-18T06:27:42.869Z,14.16
2017-10-18T06:32:47.840Z,14.33
2017-10-18T06:37:55.242Z,14.71
2017-10-18T06:43:02.276Z,14.73
2017-10-18T06:48:09.455Z,14.86
2017-10-18T06:53:12.967Z,15.14
2017-10-18T06:58:16.818Z,15.34
2017-10-18T07:03:19.953Z,15.47
2017-10-18T07:08:23.767Z,15.31
2017-10-18T07:13:26.116Z,15.61
2017-10-18T07:18:32.343Z,15.67
2017-10-18T07:23:37.588Z,15.38
2017-10-18T07:28:44.787Z,15.76
2017-10-18T07:33:51.295Z,16.00
2017-10-18T07:38:56.358Z,16.23
2017-10-18T07:44:02.880Z,16.78
2017-10-18T07:49:05.310Z,17.15
2017-10-18T07:54:11.068Z,17.19
2017-10-18T07:59:17.744Z,17.04
2017-10-18T08:04:24.424Z,16.92
2017-10-18T08:09:27.888Z,17.23
2017-10-18T08:14:30.857Z,17.48
2017-10-18T08:19:35.908Z,17.36
2017-10-18T08:24:40.750Z,17.48
2017-10-18T08:29:46.942Z,17.73
2017-10-18T08:34:54.512Z,17.98
2017-10-18T08:39:57.151Z,17.84
2017-10-18T08:45:04.797Z,17.79
2017-10-18T08:50:07.944Z,18.15
2017-10-18T08:55:12.771Z,18.45
2017-10-18T09:00:16.892Z,18.66
2017-10-18T09:05:20.136Z,18.81
2017-10-18T09:10:27.064Z,19.18
2017-10-18T09:15:31.419Z,19.06
2017-10-18T09:20:34.824Z,19.37
2017-10-18T09:25:41.428Z,19.42
2017-10-18T09:30:45.514Z,19.61
2017-10-18T09:35:50.239Z,19.45
2017-10-18T09:40:57.520Z,19.74
2017-10-18T09:46:03.336Z,20.00
2017-10-18T09:51:06.686Z,20.45
2017-10-18T09:56:12.613Z,20.71
2017-10-18T10:01:16.213Z,20.80
2017-10-18T10:06:19.037Z,20.41
2017-10-18T10:11:25.577Z,20.35
2017-10-18T10:16:30.830Z,20.16
2017-10-18T10:21:32.791Z,19.83
2017-10-18T10:26:35.604Z,19.94
2017-10-18T10:31:38.439Z,19.90
2017-10-18T10:36:41.122Z,20.20
2017-10-18T10:41:43.811Z,20.20
2017-10-18T10:46:59.166Z,20.39
2017-10-18T10:52:02.048Z,20.41
2017-10-18T10:57:15.926Z,20.28
2017-10-18T11:02:31.123Z,20.52
2017-10-18T11:07:34.049Z,20.24
2017-10-18T11:12:36.872Z,20.44
2017-10-18T11:17:39.675Z,20.56
2017-10-18T11:22:42.522Z,20.66
2017-10-18T11:27:45.387Z,20.62
2017-10-18T11:32:49.488Z,20.82
2017-10-18T11:43:26.869Z,20.95
2017-10-18T11:48:43.897Z,21.01
2017-10-18T11:53:54.507Z,21.03
2017-10-18T12:04:23.407Z,21.27
2017-10-18T12:09:36.608Z,21.22
2017-10-18T12:14:40.840Z,21.04
2017-10-18T12:20:03.738Z,21.23
2017-10-18T12:25:08.103Z,21.06
2017-10-18T12:35:42.055Z,20.71
2017-10-18T12:46:30.302Z,21.00
2017-10-18T12:51:38.120Z,20.98
2017-10-18T12:56:51.894Z,20.97
2017-10-18T13:01:54.720Z,21.09
2017-10-18T13:07:17.027Z,20.85
2017-10-18T13:12:31.427Z,20.91
2017-10-18T13:17:40.617Z,20.98
2017-10-18T13:22:59.002Z,21.15
2017-10-18T13:33:26.042Z,21.12
2017-10-18T13:38:39.701Z,21.36
2017-10-18T13:43:49.901Z,21.30
2017-10-18T13:49:04.750Z,21.46
2017-10-18T13:54:18.478Z,21.43
2017-10-18T13:59:24.111Z,21.20
2017-10-18T14:04:43.358Z,21.24
2017-10-18T14:09:58.230Z,21.16
2017-10-18T14:15:10.473Z,20.98
2017-10-18T14:20:25.778Z,21.11
2017-10-18T14:25:30.580Z,21.17
2017-10-18T14:30:33.880Z,21.06
2017-10-18T14:35:44.543Z,21.16
2017-10-18T14:40:58.104Z,21.43
2017-10-18T14:46:02.600Z,21.24
2017-10-18T14:51:15.517Z,21.08
2017-10-18T14:56:18.713Z,21.12
2017-10-18T15:01:21.414Z,20.95
2017-10-18T15:06:23.437Z,20.85
2017-10-18T15:11:25.647Z,20.70
2017-10-18T15:16:27.593Z,20.63
2017-10-18T15:21:30.320Z,20.54
2017-10-18T15:26:32.960Z,20.42
2017-10-18T15:31:36.491Z,20.31
2017-10-18T15:36:39.148Z,20.18
2017-10-18T15:41:41.176Z,20.15
2017-10-18T15:46:43.282Z,20.08
2017-10-18T15:51:45.348Z,19.92
2017-10-18T15:56:49.502Z,19.82
2017-10-18T16:01:53.502Z,19.64
2017-10-18T16:06:56.303Z,19.57
2017-10-18T16:11:59.135Z,19.45
2017-10-18T16:17:02.286Z,19.28
2017-10-18T16:22:05.231Z,19.17
2017-10-18T16:27:08.823Z,19.16
2017-10-18T16:32:10.770Z,18.99
2017-10-18T16:37:14.427Z,18.85
2017-10-18T16:42:17.351Z,18.70
2017-10-18T16:47:20.037Z,18.56
2017-10-18T16:52:22.024Z,18.61
2017-10-18T16:57:25.204Z,18.72
2017-10-18T17:02:27.303Z,18.69
2017-10-18T17:07:29.264Z,18.61
2017-10-18T17:12:31.260Z,18.51
2017-10-18T17:17:34.203Z,18.30
2017-10-18T17:22:40.900Z,18.23
2017-10-18T17:27:49.123Z,18.15
2017-10-18T17:32:52.069Z,17.89
2017-10-18T17:37:54.826Z,17.70
2017-10-18T17:42:57.612Z,17.52
2017-10-18T17:48:00.360Z,17.47
2017-10-18T17:53:02.986Z,17.54
2017-10-18T17:58:05.953Z,17.55
2017-10-18T18:03:08.005Z,17.38
2017-10-18T18:08:10.105Z,17.24
2017-10-18T18:13:12.125Z,17.18
2017-10-18T18:18:14.194Z,17.29
2017-10-18T18:23:16.136Z,17.32
2017-10-18T18:28:18.039Z,17.30
2017-10-18T18:33:20.893Z,17.10
2017-10-18T18:38:22.995Z,17.15
2017-10-18T18:43:25.147Z,17.13
2017-10-18T18:48:27.826Z,17.09
2017-10-18T18:53:29.796Z,16.98
2017-10-18T18:58:31.774Z,16.86
2017-10-18T19:03:36.924Z,16.60
2017-10-18T19:14:19.585Z,16.38
2017-10-18T19:19:23.816Z,16.44
2017-10-18T19:24:27.767Z,16.48
2017-10-18T19:29:29.667Z,16.50
2017-10-18T19:34:32.636Z,16.47
2017-10-18T19:39:35.610Z,16.35
2017-10-18T19:44:37.584Z,16.17
2017-10-18T19:49:40.607Z,16.07
2017-10-18T19:54:42.546Z,16.04
2017-10-18T19:59:44.473Z,16.03
2017-10-18T20:04:46.571Z,15.95
2017-10-18T20:09:48.950Z,15.94
2017-10-18T20:14:52.635Z,15.86
2017-10-18T20:19:55.796Z,15.81
2017-10-18T20:24:57.753Z,15.77
2017-10-18T20:29:59.976Z,15.58
2017-10-18T20:35:01.946Z,15.59
2017-10-18T20:40:04.178Z,15.57
2017-10-18T20:45:06.302Z,15.37
2017-10-18T20:50:08.963Z,15.17
2017-10-18T20:55:10.965Z,15.33
2017-10-18T21:00:12.904Z,15.27
2017-10-18T21:05:15.012Z,15.24
2017-10-18T21:10:16.983Z,14.99
2017-10-18T21:15:18.991Z,14.99
2017-10-18T21:20:21.063Z,15.09
2017-10-18T21:25:23.956Z,15.19
2017-10-18T21:30:28.165Z,15.23
2017-10-18T21:35:30.156Z,15.30
2017-10-18T21:40:33.054Z,15.45
2017-10-18T21:45:37.527Z,15.65
2017-10-18T21:50:39.522Z,15.69
2017-10-18T21:55:41.435Z,15.73
2017-10-18T22:00:43.380Z,15.80
2017-10-18T22:05:46.147Z,15.93
2017-10-18T22:10:48.070Z,16.10
2017-10-18T22:15:50.147Z,16.18
2017-10-18T22:20:52.115Z,15.92
2017-10-18T22:25:54.188Z,16.20
2017-10-18T22:30:56.184Z,16.18
2017-10-18T22:35:58.110Z,16.19
2017-10-18T22:41:00.849Z,15.99
2017-10-18T22:46:02.862Z,16.28
2017-10-18T22:51:04.815Z,16.35
2017-10-18T22:56:06.731Z,16.26
2017-10-18T23:01:08.648Z,16.36
2017-10-18T23:06:10.677Z,16.37
2017-10-18T23:11:12.594Z,16.39
2017-10-18T23:16:14.615Z,16.39
2017-10-18T23:21:16.541Z,16.30
2017-10-18T23:26:18.473Z,16.22
2017-10-18T23:31:21.214Z,16.27
2017-10-18T23:36:23.259Z,16.21
2017-10-18T23:41:25.254Z,16.15
2017-10-18T23:46:27.231Z,16.13
2017-10-18T23:51:29.165Z,16.08
2017-10-18T23:56:31.075Z,16.03
